createdAt,value
2023-04-12T00:00:50.935Z,100382.00
2023-04-12T00:03:21.327Z,100376.00
2023-04-12T00:05:55.207Z,100377.00
2023-04-12T00:08:26.689Z,100372.00
2023-04-12T00:10:54.102Z,100355.00
2023-04-12T00:13:21.311Z,100343.00
2023-04-12T00:15:48.508Z,100322.00
2023-04-12T00:18:15.856Z,100326.00
2023-04-12T00:20:44.046Z,100326.00
2023-04-12T00:23:13.145Z,100304.00
2023-04-12T00:25:40.477Z,100309.00
2023-04-12T00:28:07.691Z,100293.00
2023-04-12T00:30:37.274Z,100292.00
2023-04-12T00:33:05.138Z,100289.00
2023-04-12T00:35:32.391Z,100299.00
2023-04-12T00:37:59.865Z,100284.00
2023-04-12T00:40:27.013Z,100276.00
2023-04-12T00:42:54.232Z,100259.00
2023-04-12T00:45:21.894Z,100261.00
2023-04-12T00:47:49.410Z,100254.00
2023-04-12T00:50:16.782Z,100244.00
2023-04-12T00:52:44.033Z,100234.00
2023-04-12T00:55:12.008Z,100234.00
2023-04-12T00:57:41.279Z,100230.00
2023-04-12T01:00:12.869Z,100217.00
2023-04-12T01:02:51.071Z,100219.00
2023-04-12T01:05:23.862Z,100211.00
2023-04-12T01:08:06.874Z,100208.00
2023-04-12T01:11:23.538Z,100196.00
2023-04-12T01:14:22.233Z,100188.00
2023-04-12T01:16:55.986Z,100187.00
2023-04-12T01:19:34.304Z,100182.00
2023-04-12T01:22:38.816Z,100162.00
2023-04-12T01:25:52.807Z,100159.00
2023-04-12T01:28:32.605Z,100160.00
2023-04-12T01:31:03.726Z,100139.00
2023-04-12T01:33:32.196Z,100129.00
2023-04-12T01:36:07.031Z,100116.00
2023-04-12T01:38:35.736Z,100116.00
2023-04-12T01:41:03.404Z,100115.00
2023-04-12T01:43:30.847Z,100106.00
2023-04-12T01:45:58.166Z,100098.00
2023-04-12T01:48:25.531Z,100093.00
2023-04-12T01:51:06.492Z,100082.00
2023-04-12T01:53:57.652Z,100062.00
2023-04-12T01:56:30.162Z,100063.00
2023-04-12T01:58:59.902Z,100061.00
2023-04-12T02:01:29.583Z,100048.00
2023-04-12T02:04:01.305Z,100053.00
2023-04-12T02:06:31.615Z,100056.00
2023-04-12T02:09:06.030Z,100045.00
2023-04-12T02:11:33.367Z,100047.00
2023-04-12T02:14:03.219Z,100042.00
2023-04-12T02:16:34.752Z,100020.00
2023-04-12T02:23:02.183Z,100020.00
2023-04-12T02:25:29.544Z,100008.00
2023-04-12T02:27:57.015Z,99999.00
2023-04-12T02:30:24.350Z,99983.00
2023-04-12T02:32:53.613Z,99978.00
2023-04-12T02:35:21.238Z,99973.00
2023-04-12T02:37:48.727Z,99961.00
2023-04-12T02:40:16.307Z,99951.00
2023-04-12T02:42:45.578Z,99941.00
2023-04-12T02:45:12.827Z,99922.00
2023-04-12T02:47:42.409Z,99907.00
2023-04-12T02:50:09.977Z,99912.00
2023-04-12T02:52:37.156Z,99907.00
2023-04-12T02:55:04.753Z,99885.00
2023-04-12T02:57:32.078Z,99871.00
2023-04-12T02:59:59.382Z,99881.00
2023-04-12T03:02:26.795Z,99872.00
2023-04-12T03:04:55.066Z,99873.00
2023-04-12T03:07:22.304Z,99856.00
2023-04-12T03:09:51.952Z,99852.00
2023-04-12T03:12:19.284Z,99848.00
2023-04-12T03:14:46.561Z,99852.00
2023-04-12T03:17:13.986Z,99823.00
2023-04-12T03:19:44.006Z,99832.00
2023-04-12T03:22:13.974Z,99822.00
2023-04-12T03:24:43.034Z,99805.00
2023-04-12T03:27:10.472Z,99799.00
2023-04-12T03:29:37.861Z,99801.00
2023-04-12T03:32:05.229Z,99791.00
2023-04-12T03:34:32.543Z,99788.00
2023-04-12T03:37:02.360Z,99790.00
2023-04-12T03:39:29.834Z,99782.00
2023-04-12T03:41:57.153Z,99771.00
2023-04-12T03:44:26.450Z,99782.00
2023-04-12T03:46:54.319Z,99769.00
2023-04-12T03:49:22.135Z,99756.00
2023-04-12T03:51:51.063Z,99753.00
2023-04-12T03:54:18.396Z,99750.00
2023-04-12T03:56:46.356Z,99760.00
2023-04-12T03:59:14.935Z,99754.00
2023-04-12T04:01:43.612Z,99749.00
2023-04-12T04:04:11.357Z,99740.00
2023-04-12T04:06:39.163Z,99741.00
2023-04-12T04:09:07.139Z,99737.00
2023-04-12T04:11:34.350Z,99737.00
2023-04-12T04:14:04.578Z,99709.00
2023-04-12T04:16:31.953Z,99720.00
2023-04-12T04:18:59.332Z,99722.00
2023-04-12T04:21:26.981Z,99718.00
2023-04-12T04:23:54.780Z,99700.00
2023-04-12T04:26:33.377Z,99703.00
2023-04-12T04:29:02.108Z,99690.00
2023-04-12T04:31:36.519Z,99684.00
2023-04-12T04:34:05.683Z,99703.00
2023-04-12T04:36:38.395Z,99695.00
2023-04-12T04:39:05.767Z,99677.00
2023-04-12T04:41:39.525Z,99674.00
2023-04-12T04:44:13.772Z,99685.00
2023-04-12T04:46:43.584Z,99670.00
2023-04-12T04:49:11.212Z,99671.00
2023-04-12T04:51:38.416Z,99666.00
2023-04-12T04:54:06.046Z,99675.00
2023-04-12T04:56:33.280Z,99674.00
2023-04-12T04:59:00.761Z,99676.00
2023-04-12T05:01:28.858Z,99665.00
2023-04-12T05:03:56.513Z,99660.00
2023-04-12T05:06:24.139Z,99661.00
2023-04-12T05:09:28.973Z,99661.00
2023-04-12T05:11:56.222Z,99657.00
2023-04-12T05:14:23.468Z,99639.00
2023-04-12T05:16:53.997Z,99639.00
2023-04-12T05:19:22.049Z,99630.00
2023-04-12T05:21:49.277Z,99631.00
2023-04-12T05:24:16.395Z,99635.00
2023-04-12T05:26:43.566Z,99620.00
2023-04-12T05:29:11.283Z,99629.00
2023-04-12T05:31:38.448Z,99622.00
2023-04-12T05:34:05.887Z,99617.00
2023-04-12T05:36:33.708Z,99620.00
2023-04-12T05:39:01.544Z,99612.00
2023-04-12T05:41:49.329Z,99606.00
2023-04-12T05:44:18.162Z,99594.00
2023-04-12T05:46:45.653Z,99609.00
2023-04-12T05:49:12.827Z,99605.00
2023-04-12T05:51:41.647Z,99600.00
2023-04-12T05:54:10.727Z,99597.00
2023-04-12T06:00:54.473Z,99592.00
2023-04-12T06:03:25.852Z,99593.00
2023-04-12T06:05:53.854Z,99587.00
2023-04-12T06:08:21.474Z,99578.00
2023-04-12T06:14:49.018Z,99566.00
2023-04-12T06:21:27.810Z,99575.00
2023-04-12T06:23:55.158Z,99555.00
2023-04-12T06:26:22.468Z,99552.00
2023-04-12T06:28:52.349Z,99545.00
2023-04-12T06:31:21.549Z,99541.00
2023-04-12T06:33:50.648Z,99547.00
2023-04-12T06:36:18.074Z,99534.00
2023-04-12T06:38:45.422Z,99538.00
2023-04-12T06:41:13.231Z,99526.00
2023-04-12T06:43:40.895Z,99533.00
2023-04-12T06:46:09.593Z,99523.00
2023-04-12T06:48:37.360Z,99515.00
2023-04-12T06:51:04.925Z,99537.00
2023-04-12T06:53:35.729Z,99516.00
2023-04-12T06:56:06.670Z,99522.00
2023-04-12T06:58:34.160Z,99508.00
2023-04-12T07:01:10.964Z,99508.00
2023-04-12T07:03:58.177Z,99519.00
2023-04-12T07:06:26.395Z,99509.00
2023-04-12T07:08:54.013Z,99506.00
2023-04-12T07:11:23.521Z,99484.00
2023-04-12T07:17:38.162Z,99484.00
2023-04-12T07:20:06.344Z,99479.00
2023-04-12T07:22:33.906Z,99473.00
2023-04-12T07:25:01.446Z,99466.00
2023-04-12T07:27:29.438Z,99477.00
2023-04-12T07:29:58.667Z,99470.00
2023-04-12T07:32:27.282Z,99470.00
2023-04-12T07:34:54.897Z,99461.00
2023-04-12T07:37:23.413Z,99476.00
2023-04-12T07:39:51.978Z,99468.00
2023-04-12T07:42:19.385Z,99467.00
2023-04-12T07:44:46.809Z,99473.00
2023-04-12T07:47:13.997Z,99476.00
2023-04-12T07:49:41.663Z,99473.00
2023-04-12T07:52:08.983Z,99476.00
2023-04-12T07:54:36.422Z,99469.00
2023-04-12T07:57:04.243Z,99463.00
2023-04-12T07:59:32.222Z,99460.00
2023-04-12T08:02:00.280Z,99454.00
2023-04-12T08:04:30.779Z,99460.00
2023-04-12T08:06:58.062Z,99467.00
2023-04-12T08:09:25.538Z,99460.00
2023-04-12T08:11:52.825Z,99463.00
2023-04-12T08:14:21.543Z,99471.00
2023-04-12T08:16:48.957Z,99455.00
2023-04-12T08:19:16.993Z,99454.00
2023-04-12T08:21:44.395Z,99453.00
2023-04-12T08:24:12.494Z,99459.00
2023-04-12T08:26:39.996Z,99464.00
2023-04-12T08:29:07.463Z,99468.00
2023-04-12T08:31:35.190Z,99468.00
2023-04-12T08:34:02.687Z,99465.00
2023-04-12T08:36:30.389Z,99472.00
2023-04-12T08:39:02.187Z,99473.00
2023-04-12T08:41:29.829Z,99468.00
2023-04-12T08:43:59.486Z,99469.00
2023-04-12T08:46:28.476Z,99482.00
2023-04-12T08:48:57.407Z,99487.00
2023-04-12T08:51:25.559Z,99483.00
2023-04-12T08:53:54.193Z,99475.00
2023-04-12T08:56:23.930Z,99476.00
2023-04-12T08:58:52.920Z,99484.00
2023-04-12T09:01:22.021Z,99482.00
2023-04-12T09:04:45.769Z,99486.00
2023-04-12T09:07:13.457Z,99485.00
2023-04-12T09:09:46.720Z,99481.00
2023-04-12T09:12:15.996Z,99476.00
2023-04-12T09:14:47.007Z,99485.00
2023-04-12T09:17:27.983Z,99471.00
2023-04-12T09:19:56.659Z,99477.00
2023-04-12T09:22:41.766Z,99473.00
2023-04-12T09:25:09.401Z,99468.00
2023-04-12T09:27:51.246Z,99474.00
2023-04-12T09:30:20.811Z,99481.00
2023-04-12T09:32:53.716Z,99473.00
2023-04-12T09:35:37.121Z,99463.00
2023-04-12T09:38:11.533Z,99464.00
2023-04-12T09:40:39.237Z,99458.00
2023-04-12T09:43:08.635Z,99450.00
2023-04-12T09:45:39.417Z,99446.00
2023-04-12T09:48:08.246Z,99431.00
2023-04-12T09:50:35.937Z,99439.00
2023-04-12T09:53:15.504Z,99438.00
2023-04-12T09:55:42.980Z,99447.00
2023-04-12T09:58:11.969Z,99439.00
2023-04-12T10:00:40.330Z,99451.00
2023-04-12T10:03:08.432Z,99446.00
2023-04-12T10:05:40.997Z,99452.00
2023-04-12T10:08:08.500Z,99449.00
2023-04-12T10:10:37.247Z,99450.00
2023-04-12T10:13:06.715Z,99442.00
2023-04-12T10:15:36.640Z,99447.00
2023-04-12T10:18:05.938Z,99439.00
2023-04-12T10:20:33.586Z,99445.00
2023-04-12T10:23:01.361Z,99462.00
2023-04-12T10:25:32.441Z,99460.00
2023-04-12T10:28:19.289Z,99460.00
2023-04-12T10:30:49.666Z,99456.00
2023-04-12T10:33:27.377Z,99461.00
2023-04-12T10:36:08.821Z,99455.00
2023-04-12T10:38:47.601Z,99445.00
2023-04-12T10:41:20.988Z,99435.00
2023-04-12T10:44:09.349Z,99446.00
2023-04-12T10:46:40.115Z,99439.00
2023-04-12T10:49:15.759Z,99449.00
2023-04-12T10:52:02.348Z,99453.00
2023-04-12T10:54:32.824Z,99460.00
2023-04-12T10:57:00.313Z,99452.00
2023-04-12T10:59:57.524Z,99457.00
2023-04-12T11:02:25.490Z,99443.00
2023-04-12T11:05:10.398Z,99456.00
2023-04-12T11:07:46.382Z,99449.00
2023-04-12T11:10:16.585Z,99445.00
2023-04-12T11:12:52.849Z,99467.00
2023-04-12T11:15:23.231Z,99457.00
2023-04-12T11:17:58.419Z,99458.00
2023-04-12T11:20:27.966Z,99460.00
2023-04-12T11:22:55.821Z,99454.00
2023-04-12T11:25:23.409Z,99452.00
2023-04-12T11:27:55.884Z,99441.00
2023-04-12T11:30:25.756Z,99443.00
2023-04-12T11:32:56.009Z,99442.00
2023-04-12T11:35:27.702Z,99437.00
2023-04-12T11:37:58.968Z,99434.00
2023-04-12T11:40:26.647Z,99434.00
2023-04-12T11:42:53.995Z,99441.00
2023-04-12T11:45:24.439Z,99438.00
2023-04-12T11:47:52.465Z,99435.00
2023-04-12T11:50:31.435Z,99455.00
2023-04-12T11:53:12.379Z,99439.00
2023-04-12T11:55:39.666Z,99442.00
2023-04-12T11:58:07.440Z,99440.00
2023-04-12T12:00:35.136Z,99431.00
2023-04-12T12:03:08.307Z,99427.00
2023-04-12T12:05:39.293Z,99434.00
2023-04-12T12:08:11.764Z,99424.00
2023-04-12T12:10:52.313Z,99427.00
2023-04-12T12:13:27.822Z,99431.00
2023-04-12T12:15:55.319Z,99436.00
2023-04-12T12:18:27.554Z,99438.00
2023-04-12T12:20:56.015Z,99443.00
2023-04-12T12:23:33.396Z,99445.00
2023-04-12T12:26:17.883Z,99436.00
2023-04-12T12:28:56.058Z,99454.00
2023-04-12T12:31:28.264Z,99476.00
2023-04-12T12:34:05.796Z,99482.00
2023-04-12T12:36:39.278Z,99491.00
2023-04-12T12:39:12.085Z,99500.00
2023-04-12T12:41:40.476Z,99500.00
2023-04-12T12:44:08.393Z,99485.00
2023-04-12T12:49:06.471Z,99506.00
2023-04-12T12:51:33.945Z,99508.00
2023-04-12T12:54:01.548Z,99510.00
2023-04-12T12:56:28.769Z,99506.00
2023-04-12T12:58:56.278Z,99519.00
2023-04-12T13:01:23.818Z,99517.00
2023-04-12T13:03:54.122Z,99519.00
2023-04-12T13:06:28.348Z,99519.00
2023-04-12T13:08:55.953Z,99522.00
2023-04-12T13:11:23.504Z,99530.00
2023-04-12T13:13:50.641Z,99521.00
2023-04-12T13:16:17.892Z,99519.00
2023-04-12T13:18:45.383Z,99531.00
2023-04-12T13:21:16.227Z,99544.00
2023-04-12T13:23:43.434Z,99551.00
2023-04-12T13:26:10.724Z,99554.00
2023-04-12T13:33:09.235Z,99572.00
2023-04-12T13:35:36.555Z,99570.00
2023-04-12T13:38:03.762Z,99577.00
2023-04-12T13:40:31.075Z,99579.00
2023-04-12T13:42:58.609Z,99556.00
2023-04-12T13:45:26.139Z,99555.00
2023-04-12T13:47:53.872Z,99539.00
2023-04-12T13:50:21.453Z,99534.00
2023-04-12T13:52:49.173Z,99532.00
2023-04-12T13:55:16.662Z,99535.00
2023-04-12T13:57:43.881Z,99539.00
2023-04-12T14:00:12.010Z,99534.00
2023-04-12T14:02:40.027Z,99518.00
2023-04-12T14:05:08.766Z,99538.00
2023-04-12T14:07:36.424Z,99567.00
2023-04-12T14:10:06.778Z,99553.00
2023-04-12T14:12:34.155Z,99587.00
2023-04-12T14:15:01.635Z,99617.00
2023-04-12T14:17:32.937Z,99621.00
2023-04-12T14:20:00.758Z,99618.00
2023-04-12T14:22:28.417Z,99602.00
2023-04-12T14:24:55.859Z,99615.00
2023-04-12T14:27:23.246Z,99604.00
2023-04-12T14:29:50.492Z,99594.00
2023-04-12T14:32:17.745Z,99584.00
2023-04-12T14:34:45.139Z,99587.00
2023-04-12T14:37:12.622Z,99574.00
2023-04-12T14:39:39.819Z,99550.00
2023-04-12T14:42:07.026Z,99538.00
2023-04-12T14:44:34.397Z,99540.00
2023-04-12T14:47:01.870Z,99539.00
2023-04-12T14:49:32.460Z,99536.00
2023-04-12T14:52:01.310Z,99531.00
2023-04-12T14:54:28.749Z,99525.00
2023-04-12T14:56:57.135Z,99521.00
2023-04-12T14:59:25.098Z,99528.00
2023-04-12T15:01:53.120Z,99532.00
2023-04-12T15:04:20.870Z,99524.00
2023-04-12T15:06:51.372Z,99530.00
2023-04-12T15:09:18.792Z,99525.00
2023-04-12T15:11:50.764Z,99526.00
2023-04-12T15:14:20.968Z,99533.00
2023-04-12T15:16:52.362Z,99540.00
2023-04-12T15:19:32.024Z,99546.00
2023-04-12T15:22:00.570Z,99563.00
2023-04-12T15:24:28.672Z,99572.00
2023-04-12T15:26:56.898Z,99571.00
2023-04-12T15:29:24.716Z,99582.00
2023-04-12T15:31:52.040Z,99582.00
2023-04-12T15:34:19.813Z,99603.00
2023-04-12T15:36:47.341Z,99614.00
2023-04-12T15:39:15.300Z,99633.00
2023-04-12T15:41:43.150Z,99637.00
2023-04-12T15:44:15.378Z,99647.00
2023-04-12T15:46:53.370Z,99636.00
2023-04-12T15:49:27.449Z,99613.00
2023-04-12T15:51:57.788Z,99602.00
2023-04-12T15:54:25.096Z,99590.00
2023-04-12T15:56:53.260Z,99591.00
2023-04-12T15:59:20.706Z,99592.00
2023-04-12T16:01:52.056Z,99589.00
2023-04-12T16:04:19.422Z,99590.00
2023-04-12T16:06:46.722Z,99588.00
2023-04-12T16:09:22.625Z,99585.00
2023-04-12T16:11:49.867Z,99569.00
2023-04-12T16:14:17.667Z,99545.00
2023-04-12T16:16:45.553Z,99563.00
2023-04-12T16:19:15.645Z,99547.00
2023-04-12T16:21:44.579Z,99549.00
2023-04-12T16:24:12.092Z,99561.00
2023-04-12T16:26:40.426Z,99554.00
2023-04-12T16:29:07.725Z,99535.00
2023-04-12T16:32:50.907Z,99531.00
2023-04-12T16:36:16.800Z,99527.00
2023-04-12T16:38:50.274Z,99523.00
2023-04-12T16:41:20.864Z,99502.00
2023-04-12T16:43:55.044Z,99517.00
2023-04-12T16:46:29.818Z,99504.00
2023-04-12T16:48:59.821Z,99500.00
2023-04-12T16:51:27.335Z,99505.00
2023-04-12T16:54:04.626Z,99517.00
2023-04-12T16:56:32.565Z,99521.00
2023-04-12T16:59:00.284Z,99533.00
2023-04-12T17:01:27.443Z,99521.00
2023-04-12T17:03:54.913Z,99519.00
2023-04-12T17:06:22.367Z,99524.00
2023-04-12T17:08:49.547Z,99529.00
2023-04-12T17:11:17.341Z,99533.00
2023-04-12T17:13:46.447Z,99530.00
2023-04-12T17:16:16.780Z,99536.00
2023-04-12T17:18:44.505Z,99528.00
2023-04-12T17:21:12.212Z,99535.00
2023-04-12T17:23:39.670Z,99543.00
2023-04-12T17:26:08.442Z,99537.00
2023-04-12T17:28:38.016Z,99540.00
2023-04-12T17:31:06.160Z,99535.00
2023-04-12T17:33:35.828Z,99542.00
2023-04-12T17:36:04.331Z,99530.00
2023-04-12T17:38:31.739Z,99532.00
2023-04-12T17:40:59.114Z,99547.00
2023-04-12T17:43:26.510Z,99527.00
2023-04-12T17:46:01.055Z,99528.00
2023-04-12T17:48:32.408Z,99537.00
2023-04-12T17:51:06.963Z,99539.00
2023-04-12T17:54:01.038Z,99539.00
2023-04-12T17:56:28.479Z,99539.00
2023-04-12T17:58:55.857Z,99538.00
2023-04-12T18:01:25.370Z,99543.00
2023-04-12T18:03:53.003Z,99549.00
2023-04-12T18:06:20.618Z,99553.00
2023-04-12T18:08:47.849Z,99549.00
2023-04-12T18:11:15.215Z,99546.00
2023-04-12T18:13:42.830Z,99548.00
2023-04-12T18:16:10.289Z,99555.00
2023-04-12T18:18:37.868Z,99560.00
2023-04-12T18:21:06.713Z,99555.00
2023-04-12T18:23:34.630Z,99550.00
2023-04-12T18:26:01.979Z,99544.00
2023-04-12T18:28:34.998Z,99550.00
2023-04-12T18:31:03.087Z,99554.00
2023-04-12T18:33:31.537Z,99552.00
2023-04-12T18:35:58.805Z,99552.00
2023-04-12T18:38:32.845Z,99554.00
2023-04-12T18:41:00.633Z,99563.00
2023-04-12T18:43:28.347Z,99564.00
2023-04-12T18:45:56.417Z,99569.00
2023-04-12T18:52:37.882Z,99569.00
2023-04-12T18:55:06.509Z,99573.00
2023-04-12T18:57:33.984Z,99566.00
2023-04-12T19:00:01.343Z,99568.00
2023-04-12T19:02:32.230Z,99569.00
2023-04-12T19:05:00.248Z,99571.00
2023-04-12T19:07:28.065Z,99562.00
2023-04-12T19:09:55.824Z,99574.00
2023-04-12T19:12:23.392Z,99557.00
2023-04-12T19:14:50.750Z,99576.00
2023-04-12T19:17:19.836Z,99573.00
2023-04-12T19:19:47.081Z,99578.00
2023-04-12T19:22:17.344Z,99584.00
2023-04-12T19:24:44.686Z,99592.00
2023-04-12T19:27:11.834Z,99580.00
2023-04-12T19:29:39.268Z,99580.00
2023-04-12T19:33:24.347Z,99569.00
2023-04-12T19:35:52.322Z,99575.00
2023-04-12T19:38:21.283Z,99574.00
2023-04-12T19:40:51.148Z,99565.00
2023-04-12T19:43:19.351Z,99576.00
2023-04-12T19:45:47.232Z,99576.00
2023-04-12T19:48:14.773Z,99565.00
2023-04-12T19:50:43.303Z,99574.00
2023-04-12T19:53:12.345Z,99572.00
2023-04-12T19:55:40.012Z,99549.00
2023-04-12T20:02:19.277Z,99565.00
2023-04-12T20:04:49.024Z,99567.00
2023-04-12T20:07:19.362Z,99553.00
2023-04-12T20:09:46.603Z,99562.00
2023-04-12T20:12:14.114Z,99557.00
2023-04-12T20:14:41.481Z,99555.00
2023-04-12T20:17:08.935Z,99554.00
2023-04-12T20:19:36.544Z,99554.00
2023-04-12T20:22:04.416Z,99553.00
2023-04-12T20:24:34.757Z,99570.00
2023-04-12T20:27:02.704Z,99561.00
2023-04-12T20:29:35.025Z,99563.00
2023-04-12T20:32:02.554Z,99552.00
2023-04-12T20:34:29.727Z,99554.00
2023-04-12T20:36:56.952Z,99564.00
2023-04-12T20:39:24.481Z,99564.00
2023-04-12T20:41:53.890Z,99552.00
2023-04-12T20:44:21.434Z,99550.00
2023-04-12T20:46:49.417Z,99561.00
2023-04-12T20:49:16.875Z,99552.00
2023-04-12T20:51:46.926Z,99547.00
2023-04-12T20:54:14.767Z,99554.00
2023-04-12T20:56:42.183Z,99551.00
2023-04-12T20:59:10.692Z,99546.00
2023-04-12T21:01:38.016Z,99542.00
2023-04-12T21:04:06.850Z,99530.00
2023-04-12T21:06:34.742Z,99540.00
2023-04-12T21:09:06.051Z,99540.00
2023-04-12T21:11:33.536Z,99538.00
2023-04-12T21:14:01.532Z,99534.00
2023-04-12T21:16:28.912Z,99528.00
2023-04-12T21:18:56.361Z,99509.00
2023-04-12T21:21:23.825Z,99512.00
2023-04-12T21:23:51.943Z,99499.00
2023-04-12T21:26:19.091Z,99494.00
2023-04-12T21:28:46.259Z,99483.00
2023-04-12T21:31:13.729Z,99495.00
2023-04-12T21:33:41.877Z,99489.00
2023-04-12T21:36:10.361Z,99492.00
2023-04-12T21:38:37.669Z,99479.00
2023-04-12T21:41:11.485Z,99484.00
2023-04-12T21:43:42.120Z,99477.00
2023-04-12T21:46:09.391Z,99479.00
2023-04-12T21:48:37.067Z,99479.00
2023-04-12T21:51:06.428Z,99474.00
2023-04-12T21:53:33.819Z,99462.00
2023-04-12T21:56:01.322Z,99471.00
2023-04-12T21:58:33.422Z,99468.00
2023-04-12T22:01:00.727Z,99459.00
2023-04-12T22:03:28.642Z,99453.00
2023-04-12T22:06:04.273Z,99441.00
2023-04-12T22:08:34.013Z,99437.00
2023-04-12T22:11:01.665Z,99428.00
2023-04-12T22:13:29.531Z,99425.00
2023-04-12T22:15:58.084Z,99414.00
2023-04-12T22:18:25.807Z,99418.00
2023-04-12T22:20:53.262Z,99413.00
2023-04-12T22:23:20.486Z,99411.00
2023-04-12T22:25:48.278Z,99411.00
2023-04-12T22:32:26.889Z,99400.00
2023-04-12T22:35:08.227Z,99405.00
2023-04-12T22:37:41.557Z,99390.00
2023-04-12T22:40:12.533Z,99403.00
2023-04-12T22:42:47.868Z,99398.00
2023-04-12T22:45:17.173Z,99403.00
2023-04-12T22:47:45.713Z,99386.00
2023-04-12T22:50:13.523Z,99394.00
2023-04-12T22:52:42.000Z,99393.00
2023-04-12T22:55:14.979Z,99392.00
2023-04-12T22:57:42.466Z,99369.00
2023-04-12T23:00:15.978Z,99369.00
2023-04-12T23:02:46.194Z,99357.00
2023-04-12T23:05:14.515Z,99356.00
2023-04-12T23:07:43.726Z,99345.00
2023-04-12T23:10:12.396Z,99343.00
2023-04-12T23:12:40.092Z,99330.00
2023-04-12T23:15:09.256Z,99331.00
2023-04-12T23:17:37.129Z,99326.00
2023-04-12T23:20:10.130Z,99340.00
2023-04-12T23:22:56.755Z,99328.00
2023-04-12T23:25:38.232Z,99326.00
2023-04-12T23:28:19.432Z,99316.00
2023-04-12T23:30:49.854Z,99315.00
2023-04-12T23:33:22.041Z,99312.00
2023-04-12T23:35:56.212Z,99317.00
2023-04-12T23:38:27.354Z,99308.00
2023-04-12T23:40:54.684Z,99309.00
2023-04-12T23:43:26.162Z,99306.00
2023-04-12T23:45:54.294Z,99316.00
2023-04-12T23:48:22.176Z,99312.00
2023-04-12T23:50:50.254Z,99307.00
2023-04-12T23:53:18.815Z,99313.00
2023-04-12T23:55:53.501Z,99290.00
2023-04-12T23:58:21.645Z,99317.00
